LKPR Informações do Aeroporto

Informações da Pista
Pista 04 Comprimento 6955 ft Largura 197 ft
Elevação 1247 ft Limite 0 ft Heading 37
Pista 22 Comprimento 6955 ft Largura 197 ft
Elevação 1174 ft Limite 0 ft Heading 217
Pista 06 Comprimento 12189 ft Largura 148 ft
Elevação 1202 ft Limite 0 ft Heading 65
Pista 24 Comprimento 12189 ft Largura 148 ft
Elevação 1158 ft Limite 0 ft Heading 245
Pista 13 Comprimento 10663 ft Largura 148 ft
Elevação 1160 ft Limite 0 ft Heading 127
Pista 31 Comprimento 10663 ft Largura 148 ft
Elevação 1232 ft Limite 0 ft Heading 307
Frequências do Aeroporto
Tipo APP Nome PRAHA APP Frequência 120.525 MHZ
Tipo ATIS Nome ATIS Frequência 122.15 MHZ
Tipo CLD Nome CLNC DEL Frequência 120.05 MHZ
Tipo GND Nome GND Frequência 121.9 MHZ
Tipo INFO Nome INFO Frequência 118.3 MHZ
Tipo RDR Nome RADAR Frequência 119 MHZ
Tipo TWR Nome TWR Frequência 118.1 MHZ
Navaids do Aeroporto
Tipo VOR-DME Nome Neratovice Frequência 108600 KHZ
Tipo VOR-DME Nome Praha Frequência 112600 KHZ
Tipo NDB Nome Ruzyne Middle Frequência 307 KHZ
Tipo NDB Nome Ruzyne North Frequência 356 KHZ
Informações meteorológicas do aeroporto e NOTAM
ADDS - METARS form results

(1355 UTC 13 July 2020)
Data provider http://aviationweather.gov/metar/data/
 
METAR text: LKPR 131330Z 03005KT 350V090 CAVOK 22/05 Q1022 NOSIG
Conditions at: LKPR (PRAGUE/RUZYNE , CZ) observed 1330 UTC 13 July 2020
Temperature: 22.0°C (72°F)
Dewpoint: 5.0°C (41°F) [RH = 33%]
Pressure (altimeter): 30.18 inches Hg (1022.0 mb)
Winds: from the NNE (30 degrees) at 6 MPH (5 knots; 2.6 m/s)
Visibility: 6 or more miles (10+ km)
Ceiling: ceiling and visibility are OK
Clouds: unknown
Weather: no significant weather observed at this time

METAR text: LKPR 131300Z VRB04KT CAVOK 22/06 Q1023 NOSIG
Conditions at: LKPR (PRAGUE/RUZYNE , CZ) observed 1300 UTC 13 July 2020
Temperature: 22.0°C (72°F)
Dewpoint: 6.0°C (43°F) [RH = 35%]
Pressure (altimeter): 30.21 inches Hg (1023.0 mb)
Winds: variable direction winds at 5 MPH (4 knots; 2.1 m/s)
Visibility: 6 or more miles (10+ km)
Ceiling: ceiling and visibility are OK
Clouds: unknown
Weather: no significant weather observed at this time

Forecast for: LKPR (PRAGUE/RUZYNE , CZ)
Text: TAF LKPR 131100Z 1312/1418 04006KT CAVOK
Forecast period: 1200 to 2000 UTC 13 July 2020
Forecast type: FROM: standard forecast or significant change
Winds: from the NE (40 degrees) at 7 MPH (6 knots; 3.1 m/s)
Visibility: 6 or more miles 10+ km)
Ceiling: unknown
Clouds: missing
Weather: NSW  (no significant weather)
Text: BECMG 1320/1322 17006KT
Forecast period: 2000 UTC 13 July 2020 to 1800 UTC 14 July 2020
Forecast type: BECOMING: Conditions expected to become as follows by 2200 UTC 13 July 2020
Winds: from the S (170 degrees) at 7 MPH (6 knots; 3.1 m/s)
Visibility: 6 or more miles 10+ km)
Ceiling: unknown
Clouds: missing
Weather: NSW  (no significant weather)